sensor_id;sensor_type;location;lat;lon;timestamp;pressure;altitude;pressure_sealevel;temperature;humidity
48862;BME280;34681;49.188;-0.374;2022-09-09T05:42:32;100572.75;;;19.20;72.81
48862;BME280;34681;49.188;-0.374;2022-09-09T05:45:58;100572.53;;;19.21;72.80
48862;BME280;34681;49.188;-0.374;2022-09-09T06:49:57;100605.00;;;20.74;69.75
48862;BME280;34681;49.188;-0.374;2022-09-09T06:52:23;100612.25;;;20.82;69.73
48862;BME280;34681;49.188;-0.374;2022-09-09T06:54:49;100615.72;;;20.71;70.00
48862;BME280;34681;49.188;-0.374;2022-09-09T06:57:15;100612.09;;;20.57;70.05
48862;BME280;34681;49.188;-0.374;2022-09-09T06:59:40;100612.28;;;20.42;70.46
48862;BME280;34681;49.188;-0.374;2022-09-09T07:02:07;100620.84;;;20.41;70.74
48862;BME280;34681;49.188;-0.374;2022-09-09T07:04:33;100620.84;;;20.28;71.02
48862;BME280;34681;49.188;-0.374;2022-09-09T07:06:58;100622.31;;;20.24;70.83
48862;BME280;34681;49.188;-0.374;2022-09-09T07:09:24;100619.75;;;20.22;71.04
48862;BME280;34681;49.188;-0.374;2022-09-09T07:11:51;100628.94;;;20.16;70.86
48862;BME280;34681;49.188;-0.374;2022-09-09T07:14:19;100632.38;;;20.25;70.58
48862;BME280;34681;49.188;-0.374;2022-09-09T07:16:46;100629.59;;;20.11;71.01
48862;BME280;34681;49.188;-0.374;2022-09-09T07:19:12;100631.72;;;20.16;71.13
48862;BME280;34681;49.188;-0.374;2022-09-09T07:21:39;100633.69;;;20.48;70.24
48862;BME280;34681;49.188;-0.374;2022-09-09T07:24:05;100635.28;;;21.09;68.75
48862;BME280;34681;49.188;-0.374;2022-09-09T07:26:32;100634.53;;;21.53;66.89
48862;BME280;34681;49.188;-0.374;2022-09-09T07:29:00;100647.81;;;21.51;67.21
48862;BME280;34681;49.188;-0.374;2022-09-09T07:31:34;100648.34;;;21.73;66.49
48862;BME280;34681;49.188;-0.374;2022-09-09T07:34:02;100644.09;;;21.71;66.99
48862;BME280;34681;49.188;-0.374;2022-09-09T07:36:39;100646.75;;;21.52;67.29
48862;BME280;34681;49.188;-0.374;2022-09-09T07:39:07;100641.53;;;21.04;68.06
48862;BME280;34681;49.188;-0.374;2022-09-09T07:42:04;100656.53;;;20.90;68.63
48862;BME280;34681;49.188;-0.374;2022-09-09T07:44:30;100662.09;;;20.90;68.93
48862;BME280;34681;49.188;-0.374;2022-09-09T07:46:57;100667.41;;;21.12;68.55
48862;BME280;34681;49.188;-0.374;2022-09-09T07:49:23;100668.09;;;21.65;67.42
48862;BME280;34681;49.188;-0.374;2022-09-09T07:51:49;100665.09;;;21.67;66.95
48862;BME280;34681;49.188;-0.374;2022-09-09T07:54:16;100663.72;;;21.82;66.47
48862;BME280;34681;49.188;-0.374;2022-09-09T07:56:45;100668.81;;;22.30;65.24
48862;BME280;34681;49.188;-0.374;2022-09-09T07:59:10;100669.66;;;22.31;65.39
48862;BME280;34681;49.188;-0.374;2022-09-09T08:01:40;100667.50;;;22.33;65.25
48862;BME280;34681;49.188;-0.374;2022-09-09T08:04:08;100665.53;;;22.65;64.59
48862;BME280;34681;49.188;-0.374;2022-09-09T08:06:37;100671.72;;;22.67;64.04
48862;BME280;34681;49.188;-0.374;2022-09-09T08:09:03;100685.63;;;22.98;63.10
48862;BME280;34681;49.188;-0.374;2022-09-09T08:11:30;100689.63;;;22.59;63.86
48862;BME280;34681;49.188;-0.374;2022-09-09T08:13:56;100682.38;;;22.52;64.01
48862;BME280;34681;49.188;-0.374;2022-09-09T08:16:24;100696.72;;;23.05;62.94
48862;BME280;34681;49.188;-0.374;2022-09-09T08:18:51;100698.19;;;23.08;62.99
48862;BME280;34681;49.188;-0.374;2022-09-09T08:21:21;100694.41;;;22.77;63.83
48862;BME280;34681;49.188;-0.374;2022-09-09T08:23:47;100698.56;;;22.36;64.54
48862;BME280;34681;49.188;-0.374;2022-09-09T08:26:17;100685.69;;;22.04;65.85
48862;BME280;34681;49.188;-0.374;2022-09-09T08:28:44;100691.25;;;22.04;65.75
48862;BME280;34681;49.188;-0.374;2022-09-09T08:31:15;100706.84;;;22.18;65.51
48862;BME280;34681;49.188;-0.374;2022-09-09T08:33:42;100698.88;;;22.22;65.53
48862;BME280;34681;49.188;-0.374;2022-09-09T08:36:14;100699.28;;;22.25;65.33
48862;BME280;34681;49.188;-0.374;2022-09-09T08:38:43;100708.09;;;22.22;65.42
48862;BME280;34681;49.188;-0.374;2022-09-09T08:41:37;100720.66;;;24.23;59.89
48862;BME280;34681;49.188;-0.374;2022-09-09T08:52:41;100737.63;;;31.67;41.71
48862;BME280;34681;49.188;-0.374;2022-09-09T08:55:29;100734.34;;;31.24;43.27
48862;BME280;34681;49.188;-0.374;2022-09-09T08:57:58;100742.44;;;30.49;44.02
48862;BME280;34681;49.188;-0.374;2022-09-09T09:00:36;100746.00;;;28.61;46.77
48862;BME280;34681;49.188;-0.374;2022-09-09T09:11:44;100749.16;;;24.73;55.53
48862;BME280;34681;49.188;-0.374;2022-09-09T09:14:24;100757.25;;;25.98;53.36
48862;BME280;34681;49.188;-0.374;2022-09-09T09:16:58;100767.06;;;26.53;52.67
48862;BME280;34681;49.188;-0.374;2022-09-09T09:19:26;100773.22;;;26.38;52.60
48862;BME280;34681;49.188;-0.374;2022-09-09T09:22:20;100773.69;;;25.95;53.59
48862;BME280;34681;49.188;-0.374;2022-09-09T09:27:58;100772.16;;;25.75;54.30
48862;BME280;34681;49.188;-0.374;2022-09-09T09:30:34;100772.41;;;25.74;54.69
48862;BME280;34681;49.188;-0.374;2022-09-09T09:33:24;100779.94;;;25.62;54.26
48862;BME280;34681;49.188;-0.374;2022-09-09T09:35:58;100783.13;;;25.18;55.97
48862;BME280;34681;49.188;-0.374;2022-09-09T09:38:26;100787.53;;;24.96;56.39
48862;BME280;34681;49.188;-0.374;2022-09-09T09:40:55;100785.69;;;24.78;56.96
48862;BME280;34681;49.188;-0.374;2022-09-09T09:43:30;100795.78;;;24.79;57.41
48862;BME280;34681;49.188;-0.374;2022-09-09T09:45:56;100807.75;;;24.56;57.87
48862;BME280;34681;49.188;-0.374;2022-09-09T09:48:31;100812.66;;;24.24;58.04
48862;BME280;34681;49.188;-0.374;2022-09-09T09:50:59;100813.25;;;24.33;58.33
48862;BME280;34681;49.188;-0.374;2022-09-09T09:53:27;100811.28;;;24.15;58.45
48862;BME280;34681;49.188;-0.374;2022-09-09T09:58:31;100812.09;;;23.86;59.19
48862;BME280;34681;49.188;-0.374;2022-09-09T10:01:00;100817.03;;;23.40;60.13
48862;BME280;34681;49.188;-0.374;2022-09-09T10:03:35;100814.47;;;23.39;60.91
48862;BME280;34681;49.188;-0.374;2022-09-09T10:06:05;100821.09;;;23.19;61.74
48862;BME280;34681;49.188;-0.374;2022-09-09T10:08:33;100823.31;;;23.11;61.54
48862;BME280;34681;49.188;-0.374;2022-09-09T10:11:05;100819.50;;;23.05;61.84
48862;BME280;34681;49.188;-0.374;2022-09-09T10:16:46;100819.03;;;22.77;62.72
48862;BME280;34681;49.188;-0.374;2022-09-09T10:19:21;100833.25;;;23.00;62.60
48862;BME280;34681;49.188;-0.374;2022-09-09T10:22:03;100827.28;;;23.46;61.82
48862;BME280;34681;49.188;-0.374;2022-09-09T10:33:02;100837.78;;;24.13;57.67
48862;BME280;34681;49.188;-0.374;2022-09-09T10:35:56;100848.19;;;23.87;57.93
48862;BME280;34681;49.188;-0.374;2022-09-09T10:38:39;100839.78;;;23.87;58.87
48862;BME280;34681;49.188;-0.374;2022-09-09T10:42:08;100842.53;;;23.94;58.79
48862;BME280;34681;49.188;-0.374;2022-09-09T10:47:40;100829.78;;;23.98;59.51
48862;BME280;34681;49.188;-0.374;2022-09-09T10:50:33;100833.91;;;23.77;59.65
48862;BME280;34681;49.188;-0.374;2022-09-09T10:55:34;100835.75;;;23.83;59.59
48862;BME280;34681;49.188;-0.374;2022-09-09T10:58:03;100826.16;;;24.34;58.60
48862;BME280;34681;49.188;-0.374;2022-09-09T11:00:41;100838.75;;;24.85;57.27
48862;BME280;34681;49.188;-0.374;2022-09-09T11:03:17;100830.63;;;24.95;57.09
48862;BME280;34681;49.188;-0.374;2022-09-09T11:05:50;100844.09;;;25.16;56.00
48862;BME280;34681;49.188;-0.374;2022-09-09T11:08:20;100843.38;;;25.21;54.91
48862;BME280;34681;49.188;-0.374;2022-09-09T11:13:34;100841.78;;;24.83;56.27
48862;BME280;34681;49.188;-0.374;2022-09-09T11:16:13;100841.72;;;25.02;55.68
48862;BME280;34681;49.188;-0.374;2022-09-09T11:18:42;100843.91;;;25.00;54.89
48862;BME280;34681;49.188;-0.374;2022-09-09T11:21:18;100837.22;;;25.01;54.87
48862;BME280;34681;49.188;-0.374;2022-09-09T11:23:54;100840.22;;;25.29;54.16
48862;BME280;34681;49.188;-0.374;2022-09-09T11:26:30;100847.75;;;25.17;53.71
48862;BME280;34681;49.188;-0.374;2022-09-09T11:29:21;100848.25;;;25.26;54.42
48862;BME280;34681;49.188;-0.374;2022-09-09T11:40:22;100859.00;;;25.87;52.12
48862;BME280;34681;49.188;-0.374;2022-09-09T11:42:48;100862.72;;;25.23;53.79
48862;BME280;34681;49.188;-0.374;2022-09-09T11:45:26;100872.19;;;24.80;54.23
48862;BME280;34681;49.188;-0.374;2022-09-09T11:47:58;100864.53;;;24.57;53.32
48862;BME280;34681;49.188;-0.374;2022-09-09T11:52:50;100870.63;;;24.17;52.78
48862;BME280;34681;49.188;-0.374;2022-09-09T11:55:30;100861.59;;;24.15;53.55
48862;BME280;34681;49.188;-0.374;2022-09-09T11:58:16;100868.03;;;24.16;53.93
48862;BME280;34681;49.188;-0.374;2022-09-09T12:00:45;100862.69;;;23.96;54.47
48862;BME280;34681;49.188;-0.374;2022-09-09T12:05:59;100868.06;;;24.52;53.15
48862;BME280;34681;49.188;-0.374;2022-09-09T12:08:34;100874.63;;;24.76;51.78
48862;BME280;34681;49.188;-0.374;2022-09-09T12:11:02;100879.06;;;24.96;50.64
48862;BME280;34681;49.188;-0.374;2022-09-09T12:13:31;100876.47;;;25.12;51.10
48862;BME280;34681;49.188;-0.374;2022-09-09T12:15:58;100876.97;;;25.21;50.79
48862;BME280;34681;49.188;-0.374;2022-09-09T12:18:26;100870.06;;;25.47;50.62
48862;BME280;34681;49.188;-0.374;2022-09-09T12:21:29;100866.25;;;25.30;50.01
48862;BME280;34681;49.188;-0.374;2022-09-09T12:24:09;100873.44;;;24.96;50.49
48862;BME280;34681;49.188;-0.374;2022-09-09T12:26:40;100885.81;;;24.76;50.75
48862;BME280;34681;49.188;-0.374;2022-09-09T14:54:29;100918.91;;;24.06;52.56
48862;BME280;34681;49.188;-0.374;2022-09-09T14:56:55;100912.94;;;24.02;52.79
48862;BME280;34681;49.188;-0.374;2022-09-09T14:59:21;100914.56;;;23.92;53.25
48862;BME280;34681;49.188;-0.374;2022-09-09T15:01:47;100916.59;;;23.78;53.23
48862;BME280;34681;49.188;-0.374;2022-09-09T15:04:13;100921.63;;;23.69;53.00
48862;BME280;34681;49.188;-0.374;2022-09-09T15:06:42;100909.69;;;23.55;52.45
48862;BME280;34681;49.188;-0.374;2022-09-09T15:09:10;100913.28;;;23.38;52.59
48862;BME280;34681;49.188;-0.374;2022-09-09T15:15:00;100915.53;;;23.22;52.89
48862;BME280;34681;49.188;-0.374;2022-09-09T15:17:29;100923.47;;;22.94;53.49
48862;BME280;34681;49.188;-0.374;2022-09-09T15:19:57;100921.28;;;22.96;54.07
48862;BME280;34681;49.188;-0.374;2022-09-09T15:22:23;100935.75;;;23.18;53.60
48862;BME280;34681;49.188;-0.374;2022-09-09T15:24:49;100933.03;;;23.05;54.00
48862;BME280;34681;49.188;-0.374;2022-09-09T15:27:15;100935.84;;;23.05;54.15
48862;BME280;34681;49.188;-0.374;2022-09-09T15:29:41;100930.97;;;22.93;54.75
48862;BME280;34681;49.188;-0.374;2022-09-09T15:32:07;100942.97;;;23.01;54.74
48862;BME280;34681;49.188;-0.374;2022-09-09T15:34:32;100938.59;;;23.11;54.77
48862;BME280;34681;49.188;-0.374;2022-09-09T15:36:57;100937.41;;;22.94;55.74
48862;BME280;34681;49.188;-0.374;2022-09-09T15:39:25;100938.75;;;22.85;56.20
48862;BME280;34681;49.188;-0.374;2022-09-09T15:41:50;100942.66;;;22.70;55.96
48862;BME280;34681;49.188;-0.374;2022-09-09T15:44:16;100955.16;;;22.55;56.21
48862;BME280;34681;49.188;-0.374;2022-09-09T15:46:48;100941.91;;;22.43;56.44
48862;BME280;34681;49.188;-0.374;2022-09-09T15:49:20;100946.88;;;22.35;55.99
48862;BME280;34681;49.188;-0.374;2022-09-09T15:51:59;100950.06;;;22.32;55.47
48862;BME280;34681;49.188;-0.374;2022-09-09T15:54:32;100946.41;;;22.38;56.04
48862;BME280;34681;49.188;-0.374;2022-09-09T15:57:00;100947.00;;;22.53;55.68
48862;BME280;34681;49.188;-0.374;2022-09-09T15:59:28;100943.53;;;22.58;55.99
48862;BME280;34681;49.188;-0.374;2022-09-09T16:01:55;100943.63;;;22.45;56.03
48862;BME280;34681;49.188;-0.374;2022-09-09T16:04:21;100956.25;;;22.40;56.01
48862;BME280;34681;49.188;-0.374;2022-09-09T16:09:16;100939.06;;;22.50;55.36
48862;BME280;34681;49.188;-0.374;2022-09-09T16:11:42;100947.50;;;22.37;55.67
48862;BME280;34681;49.188;-0.374;2022-09-09T16:14:08;100945.56;;;22.44;55.80
48862;BME280;34681;49.188;-0.374;2022-09-09T16:16:35;100944.47;;;22.45;55.88
48862;BME280;34681;49.188;-0.374;2022-09-09T16:19:04;100943.13;;;22.61;55.46
48862;BME280;34681;49.188;-0.374;2022-09-09T16:21:39;100943.03;;;22.87;54.91
48862;BME280;34681;49.188;-0.374;2022-09-09T16:24:06;100947.28;;;22.90;54.94
48862;BME280;34681;49.188;-0.374;2022-09-09T16:26:34;100946.38;;;23.03;54.53
48862;BME280;34681;49.188;-0.374;2022-09-09T16:29:00;100946.88;;;22.93;54.78
48862;BME280;34681;49.188;-0.374;2022-09-09T16:31:28;100951.00;;;23.15;54.25
48862;BME280;34681;49.188;-0.374;2022-09-09T16:33:54;100946.19;;;23.29;54.13
48862;BME280;34681;49.188;-0.374;2022-09-09T16:36:22;100947.91;;;23.30;54.27
48862;BME280;34681;49.188;-0.374;2022-09-09T16:38:48;100950.56;;;23.18;54.35
48862;BME280;34681;49.188;-0.374;2022-09-09T16:41:14;100939.34;;;22.93;54.87
48862;BME280;34681;49.188;-0.374;2022-09-09T16:43:40;100952.47;;;22.86;55.20
48862;BME280;34681;49.188;-0.374;2022-09-09T16:46:17;100963.22;;;22.76;55.31
48862;BME280;34681;49.188;-0.374;2022-09-09T16:48:44;100956.66;;;22.51;56.52
48862;BME280;34681;49.188;-0.374;2022-09-09T16:51:22;100960.94;;;22.53;56.61
48862;BME280;34681;49.188;-0.374;2022-09-09T16:53:49;100964.22;;;22.43;57.02
48862;BME280;34681;49.188;-0.374;2022-09-09T16:56:17;100962.69;;;22.41;56.82
48862;BME280;34681;49.188;-0.374;2022-09-09T16:58:48;100974.13;;;22.26;57.22
48862;BME280;34681;49.188;-0.374;2022-09-09T17:01:14;100973.06;;;22.14;57.81
48862;BME280;34681;49.188;-0.374;2022-09-09T17:03:40;100973.72;;;22.09;57.71
48862;BME280;34681;49.188;-0.374;2022-09-09T17:06:12;100971.81;;;22.10;57.79
48862;BME280;34681;49.188;-0.374;2022-09-09T17:08:39;100983.97;;;22.29;57.64
48862;BME280;34681;49.188;-0.374;2022-09-09T17:11:17;100972.97;;;22.47;56.85
48862;BME280;34681;49.188;-0.374;2022-09-09T17:13:44;100981.31;;;22.54;57.12
48862;BME280;34681;49.188;-0.374;2022-09-09T17:16:11;100981.81;;;22.37;57.48
48862;BME280;34681;49.188;-0.374;2022-09-09T17:18:37;100980.09;;;22.36;57.71
48862;BME280;34681;49.188;-0.374;2022-09-09T17:21:08;100984.38;;;22.32;57.60
48862;BME280;34681;49.188;-0.374;2022-09-09T17:23:35;100985.91;;;22.15;58.53
48862;BME280;34681;49.188;-0.374;2022-09-09T17:26:05;100985.91;;;22.15;58.60
48862;BME280;34681;49.188;-0.374;2022-09-09T17:28:33;100987.00;;;22.14;58.16
48862;BME280;34681;49.188;-0.374;2022-09-09T17:30:58;100993.00;;;22.11;58.50
48862;BME280;34681;49.188;-0.374;2022-09-09T17:33:35;100988.47;;;21.90;58.95
48862;BME280;34681;49.188;-0.374;2022-09-09T17:36:05;100991.06;;;21.72;59.54
48862;BME280;34681;49.188;-0.374;2022-09-09T17:38:32;100988.72;;;21.62;59.72
48862;BME280;34681;49.188;-0.374;2022-09-09T17:41:20;100988.72;;;21.62;59.55
48862;BME280;34681;49.188;-0.374;2022-09-09T17:43:46;101007.97;;;21.50;59.75
48862;BME280;34681;49.188;-0.374;2022-09-09T17:46:26;100994.91;;;21.57;59.59
48862;BME280;34681;49.188;-0.374;2022-09-09T17:48:56;101001.75;;;21.42;59.72
48862;BME280;34681;49.188;-0.374;2022-09-09T17:51:23;101009.22;;;21.41;60.02
48862;BME280;34681;49.188;-0.374;2022-09-09T17:53:51;100999.41;;;21.45;59.82
48862;BME280;34681;49.188;-0.374;2022-09-09T17:56:19;101008.19;;;21.49;59.82
48862;BME280;34681;49.188;-0.374;2022-09-09T17:58:46;101001.56;;;21.43;59.77
48862;BME280;34681;49.188;-0.374;2022-09-09T18:01:23;101013.94;;;21.27;60.27
48862;BME280;34681;49.188;-0.374;2022-09-09T18:03:49;101003.16;;;21.24;60.35
48862;BME280;34681;49.188;-0.374;2022-09-09T18:06:21;101012.47;;;21.45;59.72
48862;BME280;34681;49.188;-0.374;2022-09-09T18:08:50;101006.22;;;21.29;60.20
48862;BME280;34681;49.188;-0.374;2022-09-09T18:11:16;101016.88;;;21.19;60.79
48862;BME280;34681;49.188;-0.374;2022-09-09T18:13:42;101010.66;;;21.11;60.99
48862;BME280;34681;49.188;-0.374;2022-09-09T18:16:08;101025.34;;;20.98;61.82
48862;BME280;34681;49.188;-0.374;2022-09-09T18:18:34;101025.09;;;20.86;62.04
48862;BME280;34681;49.188;-0.374;2022-09-09T18:21:05;101027.22;;;20.84;62.22
48862;BME280;34681;49.188;-0.374;2022-09-09T18:23:35;101024.47;;;20.91;61.98
48862;BME280;34681;49.188;-0.374;2022-09-09T18:26:09;101028.47;;;20.75;62.52
48862;BME280;34681;49.188;-0.374;2022-09-09T18:28:37;101030.63;;;20.80;62.49
48862;BME280;34681;49.188;-0.374;2022-09-09T18:31:12;101031.88;;;20.70;62.81
48862;BME280;34681;49.188;-0.374;2022-09-09T18:33:40;101033.97;;;20.62;62.82
48862;BME280;34681;49.188;-0.374;2022-09-09T18:36:09;101043.06;;;20.49;63.40
48862;BME280;34681;49.188;-0.374;2022-09-09T18:38:35;101042.75;;;20.65;63.08
48862;BME280;34681;49.188;-0.374;2022-09-09T18:43:37;101044.47;;;20.38;63.90
48862;BME280;34681;49.188;-0.374;2022-09-09T18:46:03;101054.09;;;20.42;63.82
48862;BME280;34681;49.188;-0.374;2022-09-09T18:48:31;101039.88;;;20.24;64.23
48862;BME280;34681;49.188;-0.374;2022-09-09T18:51:04;101051.69;;;20.33;64.11
48862;BME280;34681;49.188;-0.374;2022-09-09T18:53:30;101053.13;;;20.22;64.03
48862;BME280;34681;49.188;-0.374;2022-09-09T18:56:05;101063.22;;;20.30;63.74
48862;BME280;34681;49.188;-0.374;2022-09-09T18:58:32;101060.84;;;20.27;63.85
48862;BME280;34681;49.188;-0.374;2022-09-09T19:00:58;101076.31;;;20.36;63.52
48862;BME280;34681;49.188;-0.374;2022-09-09T19:03:25;101067.06;;;20.29;63.77
48862;BME280;34681;49.188;-0.374;2022-09-09T19:05:51;101077.06;;;20.23;64.04
48862;BME280;34681;49.188;-0.374;2022-09-09T19:08:19;101076.91;;;20.31;63.63
48862;BME280;34681;49.188;-0.374;2022-09-09T19:10:46;101077.50;;;20.27;63.83
48862;BME280;34681;49.188;-0.374;2022-09-09T19:16:44;101079.47;;;20.33;63.62
48862;BME280;34681;49.188;-0.374;2022-09-09T19:19:31;101089.25;;;20.22;63.70
48862;BME280;34681;49.188;-0.374;2022-09-09T19:21:58;101089.44;;;20.20;64.01
48862;BME280;34681;49.188;-0.374;2022-09-09T19:24:26;101093.03;;;20.14;64.11
48862;BME280;34681;49.188;-0.374;2022-09-09T19:26:54;101097.38;;;20.02;64.34
48862;BME280;34681;49.188;-0.374;2022-09-09T19:29:23;101105.19;;;20.13;64.26
48862;BME280;34681;49.188;-0.374;2022-09-09T19:31:51;101100.09;;;20.17;64.12
48862;BME280;34681;49.188;-0.374;2022-09-09T19:34:17;101111.63;;;20.14;64.13
48862;BME280;34681;49.188;-0.374;2022-09-09T19:36:44;101113.78;;;20.18;63.94
48862;BME280;34681;49.188;-0.374;2022-09-09T19:39:12;101107.19;;;20.19;63.88
48862;BME280;34681;49.188;-0.374;2022-09-09T19:41:38;101110.97;;;20.12;64.41
48862;BME280;34681;49.188;-0.374;2022-09-09T19:44:06;101111.47;;;20.22;64.27
48862;BME280;34681;49.188;-0.374;2022-09-09T19:46:34;101121.06;;;20.19;64.26
48862;BME280;34681;49.188;-0.374;2022-09-09T19:49:00;101125.78;;;20.19;64.03
48862;BME280;34681;49.188;-0.374;2022-09-09T19:51:28;101131.97;;;20.21;64.30
48862;BME280;34681;49.188;-0.374;2022-09-09T19:54:19;101136.00;;;20.18;64.02
48862;BME280;34681;49.188;-0.374;2022-09-09T19:56:45;101136.13;;;20.10;64.73
48862;BME280;34681;49.188;-0.374;2022-09-09T19:59:11;101134.63;;;20.08;64.56
48862;BME280;34681;49.188;-0.374;2022-09-09T20:01:39;101136.25;;;19.96;65.06
48862;BME280;34681;49.188;-0.374;2022-09-09T20:04:06;101143.88;;;19.93;65.14
48862;BME280;34681;49.188;-0.374;2022-09-09T20:06:35;101145.16;;;19.91;65.30
48862;BME280;34681;49.188;-0.374;2022-09-09T20:09:02;101145.94;;;19.85;65.71
48862;BME280;34681;49.188;-0.374;2022-09-09T20:11:28;101145.63;;;19.95;65.11
48862;BME280;34681;49.188;-0.374;2022-09-09T20:13:54;101154.13;;;19.93;65.08
48862;BME280;34681;49.188;-0.374;2022-09-09T20:16:22;101153.34;;;19.99;65.09
48862;BME280;34681;49.188;-0.374;2022-09-09T20:18:49;101158.78;;;20.07;64.85
48862;BME280;34681;49.188;-0.374;2022-09-09T20:21:26;101152.56;;;20.05;64.83
48862;BME280;34681;49.188;-0.374;2022-09-09T20:23:52;101155.84;;;19.94;65.39
48862;BME280;34681;49.188;-0.374;2022-09-09T20:26:21;101164.47;;;19.99;64.94
48862;BME280;34681;49.188;-0.374;2022-09-09T20:28:48;101155.72;;;20.02;64.74
48862;BME280;34681;49.188;-0.374;2022-09-09T20:31:26;101159.50;;;19.95;65.09
48862;BME280;34681;49.188;-0.374;2022-09-09T20:33:53;101151.19;;;19.95;65.01
48862;BME280;34681;49.188;-0.374;2022-09-09T20:36:23;101163.00;;;19.82;65.43
48862;BME280;34681;49.188;-0.374;2022-09-09T20:38:54;101166.31;;;19.71;65.70
48862;BME280;34681;49.188;-0.374;2022-09-09T20:41:22;101165.56;;;19.83;65.09
48862;BME280;34681;49.188;-0.374;2022-09-09T20:43:59;101163.78;;;19.76;65.35
48862;BME280;34681;49.188;-0.374;2022-09-09T20:46:30;101159.69;;;19.72;65.35
48862;BME280;34681;49.188;-0.374;2022-09-09T20:48:57;101168.28;;;19.77;65.57
48862;BME280;34681;49.188;-0.374;2022-09-09T20:51:24;101160.75;;;19.71;65.65
48862;BME280;34681;49.188;-0.374;2022-09-09T20:54:01;101166.59;;;19.61;65.87
48862;BME280;34681;49.188;-0.374;2022-09-09T20:56:32;101165.72;;;19.60;66.39
48862;BME280;34681;49.188;-0.374;2022-09-09T20:58:59;101165.06;;;19.58;66.17
48862;BME280;34681;49.188;-0.374;2022-09-09T21:01:25;101169.50;;;19.38;66.92
48862;BME280;34681;49.188;-0.374;2022-09-09T21:03:51;101174.25;;;19.44;66.70
48862;BME280;34681;49.188;-0.374;2022-09-09T21:06:17;101168.91;;;19.57;66.25
48862;BME280;34681;49.188;-0.374;2022-09-09T21:08:43;101172.25;;;19.53;66.42
48862;BME280;34681;49.188;-0.374;2022-09-09T21:11:11;101169.28;;;19.54;66.34
48862;BME280;34681;49.188;-0.374;2022-09-09T21:13:38;101166.41;;;19.48;66.67
48862;BME280;34681;49.188;-0.374;2022-09-09T21:16:05;101170.44;;;19.45;66.62
48862;BME280;34681;49.188;-0.374;2022-09-09T21:18:32;101163.25;;;19.36;66.97
48862;BME280;34681;49.188;-0.374;2022-09-09T21:20:58;101171.13;;;19.47;66.76
48862;BME280;34681;49.188;-0.374;2022-09-09T21:23:23;101161.31;;;19.51;66.44
48862;BME280;34681;49.188;-0.374;2022-09-09T21:25:49;101174.06;;;19.60;66.30
48862;BME280;34681;49.188;-0.374;2022-09-09T21:28:15;101172.91;;;19.55;66.52
48862;BME280;34681;49.188;-0.374;2022-09-09T21:30:41;101173.69;;;19.63;66.55
48862;BME280;34681;49.188;-0.374;2022-09-09T21:33:09;101167.38;;;19.55;66.76
48862;BME280;34681;49.188;-0.374;2022-09-09T21:35:37;101155.44;;;19.40;67.38
48862;BME280;34681;49.188;-0.374;2022-09-09T21:38:04;101159.84;;;19.34;67.57
48862;BME280;34681;49.188;-0.374;2022-09-09T21:40:30;101150.16;;;19.45;67.32
48862;BME280;34681;49.188;-0.374;2022-09-09T21:42:56;101163.09;;;19.38;67.52
48862;BME280;34681;49.188;-0.374;2022-09-09T21:45:23;101162.50;;;19.42;67.58
48862;BME280;34681;49.188;-0.374;2022-09-09T21:47:49;101158.94;;;19.48;67.49
48862;BME280;34681;49.188;-0.374;2022-09-09T21:50:15;101164.09;;;19.66;66.86
48862;BME280;34681;49.188;-0.374;2022-09-09T21:52:41;101155.78;;;19.66;66.58
48862;BME280;34681;49.188;-0.374;2022-09-09T21:55:07;101162.59;;;19.63;66.97
48862;BME280;34681;49.188;-0.374;2022-09-09T21:57:34;101157.97;;;19.71;66.67
48862;BME280;34681;49.188;-0.374;2022-09-09T22:00:00;101148.97;;;19.69;66.55
48862;BME280;34681;49.188;-0.374;2022-09-09T22:02:26;101152.34;;;19.49;67.24
48862;BME280;34681;49.188;-0.374;2022-09-09T22:04:52;101152.06;;;19.59;66.95
48862;BME280;34681;49.188;-0.374;2022-09-09T22:07:18;101162.38;;;19.65;66.95
48862;BME280;34681;49.188;-0.374;2022-09-09T22:09:43;101157.13;;;19.70;66.70
48862;BME280;34681;49.188;-0.374;2022-09-09T22:12:09;101156.38;;;19.61;66.98
48862;BME280;34681;49.188;-0.374;2022-09-09T22:14:35;101153.66;;;19.68;66.83
48862;BME280;34681;49.188;-0.374;2022-09-09T22:17:01;101152.22;;;19.72;66.71
48862;BME280;34681;49.188;-0.374;2022-09-09T22:19:26;101149.44;;;19.72;66.63
48862;BME280;34681;49.188;-0.374;2022-09-09T22:21:51;101149.03;;;19.75;66.64
48862;BME280;34681;49.188;-0.374;2022-09-09T22:24:17;101156.44;;;19.68;66.59
48862;BME280;34681;49.188;-0.374;2022-09-09T22:26:42;101154.66;;;19.46;67.12
48862;BME280;34681;49.188;-0.374;2022-09-09T22:29:07;101160.13;;;19.39;67.32
48862;BME280;34681;49.188;-0.374;2022-09-09T22:31:34;101153.41;;;19.48;67.27
48862;BME280;34681;49.188;-0.374;2022-09-09T22:34:01;101160.50;;;19.36;67.25
48862;BME280;34681;49.188;-0.374;2022-09-09T22:36:27;101161.84;;;19.40;67.44
48862;BME280;34681;49.188;-0.374;2022-09-09T22:38:52;101163.38;;;19.57;67.14
48862;BME280;34681;49.188;-0.374;2022-09-09T22:41:19;101162.13;;;19.45;67.29
48862;BME280;34681;49.188;-0.374;2022-09-09T22:43:45;101166.22;;;19.49;67.30
48862;BME280;34681;49.188;-0.374;2022-09-09T22:46:11;101175.19;;;19.51;67.03
48862;BME280;34681;49.188;-0.374;2022-09-09T22:48:38;101174.34;;;19.51;67.16
48862;BME280;34681;49.188;-0.374;2022-09-09T22:51:10;101172.75;;;19.42;67.09
48862;BME280;34681;49.188;-0.374;2022-09-09T22:53:38;101170.81;;;19.57;66.73
48862;BME280;34681;49.188;-0.374;2022-09-09T22:56:06;101176.56;;;19.70;66.55
48862;BME280;34681;49.188;-0.374;2022-09-09T22:58:34;101171.66;;;19.72;66.52
48862;BME280;34681;49.188;-0.374;2022-09-09T23:01:07;101179.91;;;19.66;66.38
48862;BME280;34681;49.188;-0.374;2022-09-09T23:03:34;101180.09;;;19.64;66.95
48862;BME280;34681;49.188;-0.374;2022-09-09T23:06:00;101172.91;;;19.70;66.78
48862;BME280;34681;49.188;-0.374;2022-09-09T23:08:30;101178.09;;;19.43;66.92
48862;BME280;34681;49.188;-0.374;2022-09-09T23:11:07;101175.03;;;19.53;67.11